createdAt,value
2024-05-09T00:02:01.104Z,6.22
2024-05-09T00:12:12.715Z,6.15
2024-05-09T00:17:19.532Z,6.32
2024-05-09T00:22:23.950Z,5.45
2024-05-09T00:27:30.855Z,7.95
2024-05-09T00:32:38.400Z,7.57
2024-05-09T00:37:42.923Z,7.22
2024-05-09T00:47:54.648Z,5.90
2024-05-09T00:52:59.535Z,7.05
2024-05-09T00:58:09.667Z,6.10
2024-05-09T01:03:14.615Z,7.18
2024-05-09T01:08:19.364Z,6.90
2024-05-09T01:13:26.484Z,6.50
2024-05-09T01:18:32.920Z,6.25
2024-05-09T01:23:40.059Z,6.53
2024-05-09T01:28:44.449Z,6.25
2024-05-09T01:38:55.998Z,5.10
2024-05-09T01:44:01.009Z,6.00
2024-05-09T01:49:05.510Z,6.25
2024-05-09T01:54:12.704Z,6.10
2024-05-09T01:59:17.965Z,7.53
2024-05-09T02:04:22.612Z,6.10
2024-05-09T02:09:29.890Z,6.93
2024-05-09T02:14:34.305Z,6.57
2024-05-09T02:24:45.486Z,6.28
2024-05-09T02:29:49.934Z,6.68
2024-05-09T02:40:01.316Z,7.25
2024-05-09T02:45:05.981Z,7.07
2024-05-09T02:50:13.450Z,6.72
2024-05-09T02:55:23.127Z,7.32
2024-05-09T03:00:36.626Z,7.40
2024-05-09T03:05:44.956Z,7.20
2024-05-09T03:10:52.514Z,7.10
2024-05-09T03:15:56.946Z,8.10
2024-05-09T03:26:15.272Z,6.18
2024-05-09T03:31:24.052Z,7.90
2024-05-09T03:36:28.526Z,7.72
2024-05-09T03:46:43.133Z,7.80
2024-05-09T03:51:47.535Z,7.57
2024-05-09T03:56:54.653Z,7.18
2024-05-09T04:01:59.139Z,7.53
2024-05-09T04:07:03.747Z,8.20
2024-05-09T04:12:12.525Z,8.35
2024-05-09T04:17:17.088Z,7.68
2024-05-09T04:27:28.457Z,8.48
2024-05-09T04:32:33.004Z,7.93
2024-05-09T04:37:37.624Z,7.80
2024-05-09T04:42:45.599Z,7.65
2024-05-09T04:47:50.493Z,7.93
2024-05-09T04:52:56.618Z,8.65
2024-05-09T04:58:03.765Z,8.02
2024-05-09T05:03:13.192Z,8.05
2024-05-09T05:08:20.607Z,8.30
2024-05-09T05:13:27.620Z,8.35
2024-05-09T05:18:32.357Z,7.82
2024-05-09T05:23:37.159Z,7.93
2024-05-09T05:28:44.349Z,7.60
2024-05-09T05:33:51.072Z,8.57
2024-05-09T05:38:55.803Z,7.63
2024-05-09T05:44:03.095Z,7.63
2024-05-09T05:49:07.742Z,7.97
2024-05-09T05:54:12.386Z,8.40
2024-05-09T05:59:19.518Z,7.22
2024-05-09T06:04:23.937Z,7.63
2024-05-09T06:14:35.085Z,6.43
2024-05-09T06:19:39.585Z,6.90
2024-05-09T06:24:44.115Z,7.38
2024-05-09T06:34:55.338Z,7.50
2024-05-09T06:45:07.189Z,7.40
2024-05-09T06:50:20.187Z,7.07
2024-05-09T06:55:28.448Z,7.22
2024-05-09T07:00:39.512Z,7.00
2024-05-09T07:05:46.802Z,7.88
2024-05-09T07:10:52.590Z,7.25
2024-05-09T07:15:59.743Z,7.35
2024-05-09T07:21:04.164Z,7.03
2024-05-09T07:26:08.584Z,7.63
2024-05-09T07:31:15.997Z,7.60
2024-05-09T07:36:20.371Z,7.45
2024-05-09T07:47:37.157Z,7.55
2024-05-09T07:53:21.832Z,7.70
2024-05-09T07:57:20.882Z,5.20
2024-05-09T08:02:28.061Z,7.30
2024-05-09T08:07:35.175Z,6.60
2024-05-09T08:12:39.666Z,6.35
2024-05-09T08:17:46.620Z,6.63
2024-05-09T08:22:50.987Z,5.88
2024-05-09T08:27:55.463Z,5.30
2024-05-09T08:33:02.991Z,5.20
2024-05-09T08:38:09.364Z,4.57
2024-05-09T08:43:14.481Z,4.40
2024-05-09T08:48:24.270Z,5.50
2024-05-09T08:53:29.170Z,5.18
2024-05-09T08:58:35.050Z,4.70
2024-05-09T09:03:43.147Z,4.55
2024-05-09T09:08:48.239Z,4.28
2024-05-09T09:13:52.782Z,4.57
2024-05-09T09:19:00.275Z,4.03
2024-05-09T09:24:06.055Z,3.88
2024-05-09T09:29:11.824Z,4.32
2024-05-09T09:34:18.988Z,4.07
2024-05-09T09:39:25.456Z,5.25
2024-05-09T09:44:30.194Z,4.68
2024-05-09T09:49:40.160Z,4.50
2024-05-09T09:54:47.563Z,4.35
2024-05-09T09:59:53.732Z,4.63
2024-05-09T10:05:03.322Z,5.03
2024-05-09T10:10:11.031Z,4.88
2024-05-09T10:15:15.537Z,3.75
2024-05-09T10:20:28.129Z,3.78
2024-05-09T10:25:37.260Z,3.97
2024-05-09T10:30:45.273Z,3.60
2024-05-09T10:35:56.509Z,3.83
2024-05-09T10:41:02.679Z,3.42
2024-05-09T10:46:08.004Z,3.70
2024-05-09T10:51:16.288Z,3.13
2024-05-09T10:56:20.597Z,3.38
2024-05-09T11:01:25.658Z,3.65
2024-05-09T11:06:35.177Z,3.88
2024-05-09T11:11:39.851Z,3.40
2024-05-09T11:16:45.144Z,3.03
2024-05-09T11:21:56.296Z,2.75
2024-05-09T11:27:08.084Z,2.92
2024-05-09T11:32:16.493Z,3.00
2024-05-09T11:37:23.792Z,2.40
2024-05-09T11:42:28.384Z,2.75
2024-05-09T11:47:33.270Z,3.38
2024-05-09T11:52:40.964Z,3.08
2024-05-09T11:57:45.504Z,3.05
2024-05-09T12:02:52.763Z,2.60
2024-05-09T12:07:59.934Z,2.70
2024-05-09T12:13:06.435Z,2.53
2024-05-09T12:18:11.869Z,2.40
2024-05-09T12:23:18.942Z,2.60
2024-05-09T12:28:26.477Z,2.42
2024-05-09T12:33:30.992Z,3.40
2024-05-09T12:38:38.296Z,3.70
2024-05-09T12:43:42.931Z,2.45
2024-05-09T12:48:47.894Z,2.58
2024-05-09T12:53:58.061Z,2.65
2024-05-09T12:59:02.865Z,2.10
2024-05-09T13:04:07.607Z,2.10
2024-05-09T13:09:16.583Z,2.70
2024-05-09T13:14:20.926Z,2.53
2024-05-09T13:19:25.518Z,2.15
2024-05-09T13:24:32.756Z,2.90
2024-05-09T13:29:39.125Z,2.17
2024-05-09T13:34:44.772Z,2.17
2024-05-09T13:39:52.251Z,2.17
2024-05-09T13:44:56.700Z,2.30
2024-05-09T13:50:02.000Z,2.00
2024-05-09T13:55:12.632Z,2.53
2024-05-09T14:00:27.440Z,2.35
2024-05-09T14:05:41.927Z,2.10
2024-05-09T14:10:50.895Z,1.90
2024-05-09T14:15:55.824Z,2.10
2024-05-09T14:21:00.376Z,1.85
2024-05-09T14:26:07.954Z,1.90
2024-05-09T14:31:12.455Z,1.70
2024-05-09T14:36:17.378Z,1.80
2024-05-09T14:41:24.537Z,1.60
2024-05-09T14:46:29.085Z,2.00
2024-05-09T14:51:33.546Z,2.00
2024-05-09T14:56:44.042Z,1.77
2024-05-09T15:01:51.592Z,1.58
2024-05-09T15:06:56.662Z,1.40
2024-05-09T15:12:09.321Z,1.50
2024-05-09T15:17:13.705Z,1.80
2024-05-09T15:22:18.378Z,1.60
2024-05-09T15:27:25.412Z,1.67
2024-05-09T15:32:29.960Z,1.30
2024-05-09T15:37:34.554Z,1.50
2024-05-09T15:42:43.233Z,2.30
2024-05-09T15:47:48.101Z,2.00
2024-05-09T15:52:52.533Z,2.03
2024-05-09T15:57:59.488Z,1.60
2024-05-09T16:03:04.031Z,1.67
2024-05-09T16:08:09.163Z,1.90
2024-05-09T16:13:17.197Z,1.77
2024-05-09T16:18:22.287Z,1.88
2024-05-09T16:23:26.636Z,1.73
2024-05-09T16:28:36.783Z,1.40
2024-05-09T16:33:44.342Z,1.70
2024-05-09T16:38:48.791Z,1.80
2024-05-09T16:43:58.054Z,1.80
2024-05-09T16:49:02.805Z,2.25
2024-05-09T16:54:07.256Z,1.70
2024-05-09T16:59:14.483Z,1.75
2024-05-09T17:04:19.155Z,2.05
2024-05-09T17:09:24.453Z,1.92
2024-05-09T17:14:31.528Z,2.20
2024-05-09T17:19:38.720Z,1.80
2024-05-09T17:24:43.357Z,2.17
2024-05-09T17:29:50.604Z,2.03
2024-05-09T17:34:54.958Z,2.17
2024-05-09T17:39:59.425Z,1.90
2024-05-09T17:45:06.729Z,2.30
2024-05-09T17:50:15.070Z,2.35
2024-05-09T17:55:25.588Z,2.20
2024-05-09T18:00:39.464Z,2.58
2024-05-09T18:05:46.567Z,3.20
2024-05-09T18:10:52.723Z,2.60
2024-05-09T18:16:03.434Z,2.65
2024-05-09T18:21:08.221Z,2.78
2024-05-09T18:26:12.919Z,2.67
2024-05-09T18:31:20.327Z,3.05
2024-05-09T18:36:25.532Z,2.90
2024-05-09T18:41:29.855Z,3.10
2024-05-09T18:46:36.876Z,3.45
2024-05-09T18:51:41.674Z,2.80
2024-05-09T18:56:46.169Z,3.05
2024-05-09T19:01:53.285Z,3.20
2024-05-09T19:06:57.995Z,3.28
2024-05-09T19:12:06.337Z,4.03
2024-05-09T19:17:14.544Z,4.32
2024-05-09T19:22:19.167Z,4.57
2024-05-09T19:27:24.476Z,4.93
2024-05-09T19:32:31.850Z,4.60
2024-05-09T19:37:36.317Z,5.60
2024-05-09T19:42:40.635Z,5.95
2024-05-09T19:52:52.125Z,7.50
2024-05-09T19:58:06.142Z,8.02
2024-05-09T20:03:15.256Z,8.73
2024-05-09T20:08:20.344Z,8.93
2024-05-09T20:18:31.770Z,9.55
2024-05-09T20:23:36.305Z,9.52
2024-05-09T20:33:48.566Z,8.02
2024-05-09T20:38:53.052Z,7.55
2024-05-09T20:44:00.560Z,8.65
2024-05-09T20:49:07.702Z,8.23
2024-05-09T20:54:12.450Z,8.50
2024-05-09T20:59:17.040Z,8.93
2024-05-09T21:04:24.244Z,9.15
2024-05-09T21:09:28.758Z,9.30
2024-05-09T21:19:39.982Z,8.75
2024-05-09T21:24:44.350Z,8.88
2024-05-09T21:34:55.514Z,6.90
2024-05-09T21:40:00.983Z,7.57
2024-05-09T21:45:06.143Z,7.03
2024-05-09T21:50:22.172Z,7.07
2024-05-09T21:55:28.214Z,6.38
2024-05-09T22:00:37.577Z,7.10
2024-05-09T22:05:45.916Z,6.45
2024-05-09T22:10:51.016Z,5.80
2024-05-09T22:15:58.513Z,6.45
2024-05-09T22:21:05.471Z,6.20
2024-05-09T22:26:10.485Z,6.30
2024-05-09T22:31:14.779Z,9.38
2024-05-09T22:41:26.101Z,6.75
2024-05-09T22:51:37.827Z,4.78
2024-05-09T22:56:43.001Z,6.22
2024-05-09T23:01:47.613Z,6.22
2024-05-09T23:06:55.180Z,6.13
2024-05-09T23:11:59.836Z,6.10
2024-05-09T23:17:04.265Z,5.93
2024-05-09T23:27:17.438Z,6.15
2024-05-09T23:32:22.235Z,6.18
2024-05-09T23:37:29.382Z,6.18
2024-05-09T23:42:33.957Z,5.95
2024-05-09T23:47:38.626Z,6.03
2024-05-09T23:52:45.590Z,5.88
2024-05-09T23:57:50.037Z,6.15
